Flight Track Log - Related Links

Times and Time Zones

All times are in EDT time to prevent confusion due to time zone crossing. See the ASQ6151 flight status page for this flight to view local times or setup timezone preferences in your user account.

Time Position Orientation Groundspeed Altitude Reporting Facility
EDT Latitude Longitude Course Direction KTS MPH feet Rate Location/Type
Sun 04:40:09 PM 36.0825 -80.0950 307° West 253 291 6,200  Level Atlanta Center
Sun 04:41:09 PM 36.1142 -80.1706 297° West 266 306 9,000 2,200 Climbing Atlanta Center
Sun 04:42:09 PM 36.1664 -80.2400 313° West 303 349 10,600 1,450 Climbing Atlanta Center
Sun 04:43:09 PM 36.2253 -80.3247 311° West 321 369 11,900 1,100 Climbing Atlanta Center
Sun 04:44:00 PM 36.5255 -80.4521 307° West  Level Estimated
Sun 04:44:09 PM 36.2992 -80.4219 313° West 331 381 12,800  Level Atlanta Center
Sun 04:45:09 PM 36.3683 -80.5114 314° West 346 398 14,200 1,450 Climbing Atlanta Center
Sun 04:46:09 PM 36.4336 -80.6092 310° West 363 418 15,700 1,500 Climbing Atlanta Center
Sun 04:47:09 PM 36.4969 -80.7072 309° West 375 432 17,200 1,400 Climbing Atlanta Center
Sun 04:48:09 PM 36.5622 -80.8081 309° West 375 432 18,500 1,400 Climbing Atlanta Center
Sun 04:49:09 PM 36.6253 -80.9089 308° West 370 426 20,000 1,500 Climbing Atlanta Center
Sun 04:50:09 PM 36.6883 -81.0100 308° West 370 426 21,500 1,350 Climbing Atlanta Center
Sun 04:51:09 PM 36.7469 -81.1036 308° West 375 432 22,700 1,350 Climbing Atlanta Center
Sun 04:52:09 PM 36.8033 -81.2053 305° West 375 432 24,200 1,600 Climbing Atlanta Center
Sun 04:53:09 PM 36.8747 -81.3167 309° West 375 432 25,900 1,415 Climbing Atlanta Center
Sun 04:53:55 PM 36.9169 -81.3761 312° West 366 421 26,700 1,389 Climbing Indianapolis Center
Sun 04:54:57 PM 36.9883 -81.4936 307° West 363 418 28,400 1,597 Climbing Indianapolis Center
Sun 04:55:59 PM 37.0536 -81.5986 308° West 357 411 30,000 1,258 Climbing Indianapolis Center
Sun 04:57:01 PM 37.1147 -81.6989 307° West 360 414 31,000 968 Climbing Indianapolis Center
Sun 04:58:03 PM 37.1775 -81.8017 307° West 368 423 32,000 968 Climbing Indianapolis Center
Sun 04:59:05 PM 37.2417 -81.9053 308° West 375 432 33,000 919 Climbing Indianapolis Center
Sun 05:00:07 PM 37.3061 -82.0119 307° West 382 440 33,900 1,016 Climbing Indianapolis Center
Sun 05:01:09 PM 37.3794 -82.1347 307° West 379 436 35,100 1,016 Climbing Indianapolis Center
Sun 05:02:11 PM 37.4422 -82.2397 307° West 377 434 36,000 432 Climbing Indianapolis Center
Sun 05:03:14 PM 37.5078 -82.3472 308° West 384 442 36,000  Level Indianapolis Center
Sun 05:04:16 PM 37.5750 -82.4611 307° West 402 463 36,000  Level Indianapolis Center
Sun 05:05:18 PM 37.6431 -82.5742 307° West 404 465 36,000  Level Indianapolis Center
Sun 05:06:20 PM 37.7231 -82.7086 307° West 410 472 36,000  Level Indianapolis Center
Sun 05:07:22 PM 37.7911 -82.8244 307° West 412 474 36,000  Level Indianapolis Center
Sun 05:08:24 PM 37.8608 -82.9433 307° West 417 480 36,000  Level Indianapolis Center
Sun 05:09:26 PM 37.9303 -83.0622 307° West 420 483 36,000  Level Indianapolis Center
Sun 05:10:28 PM 37.9994 -83.1803 307° West 415 478 36,000  Level Indianapolis Center
Sun 05:11:30 PM 38.0775 -83.3136 307° West 408 470 36,000  Level Indianapolis Center
Sun 05:12:32 PM 38.1458 -83.4294 307° West 410 472 36,000  Level Indianapolis Center
Sun 05:13:34 PM 38.2139 -83.5481 306° West 414 476 36,000  Level Indianapolis Center
Sun 05:14:36 PM 38.2825 -83.6658 307° West 415 478 36,000  Level Indianapolis Center
Sun 05:15:38 PM 38.3511 -83.7869 306° West 421 484 36,000  Level Indianapolis Center
Sun 05:16:40 PM 38.4322 -83.9292 306° West 425 489 36,000  Level Indianapolis Center
Sun 05:17:42 PM 38.5008 -84.0483 306° West 419 482 36,000  Level Indianapolis Center
Sun 05:18:45 PM 38.5703 -84.1703 306° West 422 486 36,000  Level Indianapolis Center
Sun 05:19:47 PM 38.6389 -84.2922 306° West 421 484 36,000  Level Indianapolis Center
Sun 05:20:49 PM 38.7183 -84.3894 316° Northwest 418 481 36,000 -48 Level Indianapolis Center
Sun 05:21:51 PM 38.8217 -84.5094 318° Northwest 417 480 35,900 -435 Descending Indianapolis Center
Sun 05:22:53 PM 38.8947 -84.5931 318° Northwest 418 481 35,100 -968 Descending Indianapolis Center
Sun 05:23:55 PM 38.9958 -84.7111 318° Northwest 423 487 33,900 -1,065 Descending Indianapolis Center
Sun 05:24:57 PM 39.0828 -84.8119 318° Northwest 420 483 32,900 -968 Descending Indianapolis Center
Sun 05:25:59 PM 39.1775 -84.9078 322° Northwest 428 493 31,900 -968 Descending Indianapolis Center
Sun 05:27:01 PM 39.2842 -84.9708 335° Northwest 427 491 30,900 -968 Descending Indianapolis Center
Sun 05:28:03 PM 39.3917 -85.0325 336° Northwest 425 489 29,900 -1,065 Descending Indianapolis Center
Sun 05:29:05 PM 39.5203 -85.1075 336° Northwest 425 489 28,700 -919 Descending Indianapolis Center
Sun 05:30:07 PM 39.6308 -85.1722 336° Northwest 432 497 28,000 -339 Descending Indianapolis Center
Sun 05:31:09 PM 39.7408 -85.2344 336° Northwest 435 501 28,000 -339 Level Indianapolis Center
Sun 05:32:11 PM 39.8494 -85.2989 336° Northwest 432 497 27,300 -823 Descending Indianapolis Center
Sun 05:33:13 PM 39.9542 -85.3603 336° Northwest 421 484 26,300 -677 Descending Indianapolis Center
Sun 05:34:15 PM 40.0764 -85.4317 336° Northwest 409 471 25,900 -677 Descending Indianapolis Center
Sun 05:35:17 PM 40.1789 -85.4928 336° Northwest 408 470 24,900 -912 Descending Indianapolis Center
Sun 05:36:20 PM 40.2811 -85.5528 336° Northwest 406 467 24,000 -432 Descending Indianapolis Center
Sun 05:37:22 PM 40.3833 -85.6139 336° Northwest 407 468 24,000  Level Indianapolis Center
Sun 05:38:02 PM 40.4689 -85.6622 337° Northwest 417 480 24,000 -235 Level Chicago Center
Sun 05:39:04 PM 40.5672 -85.7128 339° North 388 447 23,600 -871 Descending Chicago Center
Sun 05:40:06 PM 40.6631 -85.7561 341° North 369 425 22,200 -768 Descending Chicago Center
Sun 05:41:09 PM 40.7614 -85.7981 342° North 363 418 22,000 -96 Descending Chicago Center
Sun 05:42:11 PM 40.8556 -85.8406 341° North 359 413 22,000 -339 Level Chicago Center
Sun 05:43:13 PM 40.9517 -85.8850 341° North 362 417 21,300 -1,210 Descending Chicago Center
Sun 05:44:15 PM 41.0628 -85.9361 341° North 356 410 19,500 -1,548 Descending Chicago Center
Sun 05:45:17 PM 41.1475 -85.9881 335° Northwest 341 392 18,100 -1,355 Descending Chicago Center
Sun 05:46:19 PM 41.1894 -86.0889 299° West 316 364 16,700 -1,403 Descending Chicago Center
Sun 05:47:21 PM 41.2325 -86.1883 300° West 312 359 15,200 -1,403 Descending Chicago Center
Sun 05:48:23 PM 41.2808 -86.2833 304° West 311 358 13,800 -1,403 Descending Chicago Center
Sun 05:49:25 PM 41.3308 -86.3808 304° West 317 365 12,300 -823 Descending Chicago Center
Sun 05:50:27 PM 41.3828 -86.4819 304° West 328 377 12,100 -97 Descending Chicago Center
Sun 05:51:29 PM 41.4436 -86.6022 304° West 326 375 12,100  Level Chicago Center
Sun 05:52:32 PM 41.5033 -86.6925 311° West 327 376 12,100  Level Chicago Center
Sun 05:53:34 PM 41.5794 -86.7431 334° Northwest 333 383 12,100  Level Chicago Center
Sun 05:54:36 PM 41.6856 -86.7975 339° North 348 400 12,100  Level Chicago Center
Sun 05:55:38 PM 41.7806 -86.8106 354° North 347 399 12,100  Level Chicago Center
Sun 05:56:40 PM 41.8725 -86.8389 347° North 342 394 12,100 -387 Level Chicago Center
Sun 05:57:42 PM 41.9203 -86.9375 303° West 323 372 11,300 -871 Descending Chicago Center
Sun 05:58:44 PM 41.9614 -87.0428 298° West 322 371 10,300 -614 Descending Chicago Center
Sun 05:59:49 PM 41.9819 -87.1797 281° West 313 360 10,000 -567 Descending Chicago Center
Sun 06:00:51 PM 41.9825 -87.2797 270° West 277 319 9,100 -1,113 Descending Chicago Center
Sun 06:01:53 PM 41.9831 -87.3764 270° West 263 303 7,700 -1,113 Descending Chicago Center
Sun 06:02:55 PM 41.9825 -87.4706 270° West 255 293 6,800 -1,161 Descending Chicago Center
Sun 06:03:57 PM 41.9833 -87.5789 271° West 246 283 5,300 -1,306 Descending Chicago Center
Sun 06:04:59 PM 41.9839 -87.6561 271° West 227 261 4,100 -1,016 Descending Chicago Center
Sun 06:06:01 PM 41.9836 -87.7233 270° West 207 238 3,200 -871 Descending Chicago Center
Sun 06:07:03 PM 41.9842 -87.7819 271° West 182 209 2,300 -823 Descending Chicago Center
Sun 06:08:05 PM 41.9836 -87.8408 269° West 169 194 1,500 -774 Descending Chicago Center

Login

Don't have an account? Register now (free) for customized features, flight alerts, and more!